Time;durP1;ratioP1;P1;durP2;ratioP2;P2;SDS_P1;SDS_P2;PMS_P1;PMS_P2;Temp;Humidity;BMP_temperature;BMP_pressure;BME280_temperature;BME280_humidity;BME280_pressure;Samples;Min_cycle;Max_cycle;Signal;HPM_P1;HPM_P2
2021/12/19 00:08:59;;;;;;;;;32.50;21.50;;;;;7.88;79.28;103576.78;5074496;28;45273;-72
2021/12/19 00:11:26;;;;;;;;;33.00;24.25;;;;;7.79;78.80;103566.03;5075837;28;45657;-72
2021/12/19 00:13:53;;;;;;;;;36.25;25.00;;;;;7.89;79.33;103594.41;5074403;28;47108;-72
2021/12/19 00:16:19;;;;;;;;;26.25;22.00;;;;;7.83;78.84;103584.59;5068051;28;45790;-72
2021/12/19 00:18:46;;;;;;;;;35.75;25.50;;;;;7.79;79.30;103590.66;5074377;28;45415;-72
2021/12/19 00:21:14;;;;;;;;;38.75;27.75;;;;;7.86;80.50;103591.69;5073994;28;49202;-72
2021/12/19 00:23:41;;;;;;;;;29.50;22.75;;;;;7.86;80.25;103592.59;5075737;28;46284;-72
2021/12/19 00:26:07;;;;;;;;;28.00;23.25;;;;;7.76;80.07;103579.16;5073770;28;45537;-72
2021/12/19 00:28:33;;;;;;;;;35.00;26.50;;;;;7.87;79.33;103594.34;5073971;28;45511;-72
2021/12/19 00:30:58;;;;;;;;;35.25;24.50;;;;;7.88;80.45;103597.88;5073712;28;46000;-72
2021/12/19 00:33:24;;;;;;;;;25.00;22.75;;;;;7.81;80.44;103583.66;5074118;28;45462;-72
2021/12/19 00:35:49;;;;;;;;;30.50;24.75;;;;;7.84;78.63;103581.09;5075731;28;45529;-72
2021/12/19 00:38:14;;;;;;;;;42.25;27.00;;;;;7.88;79.47;103585.59;5072410;28;45443;-72
2021/12/19 00:40:41;;;;;;;;;27.00;25.00;;;;;7.80;79.52;103571.34;5073573;28;45540;-72
2021/12/19 00:43:10;;;;;;;;;28.50;25.75;;;;;7.80;79.44;103573.09;5073969;28;45414;-72
2021/12/19 00:45:38;;;;;;;;;42.00;28.25;;;;;7.85;79.43;103580.25;5073759;28;45574;-72
2021/12/19 00:48:06;;;;;;;;;31.50;29.25;;;;;7.87;79.27;103583.81;5073726;28;45400;-72
2021/12/19 00:50:33;;;;;;;;;35.75;28.00;;;;;7.83;79.91;103579.34;5076030;28;45435;-72
2021/12/19 00:52:59;;;;;;;;;34.00;24.50;;;;;7.86;80.10;103579.41;5072905;28;45555;-72
2021/12/19 00:55:27;;;;;;;;;37.25;25.25;;;;;7.87;80.04;103580.28;5073568;28;45561;-72
2021/12/19 00:57:54;;;;;;;;;31.50;26.25;;;;;7.85;79.35;103572.34;5055332;28;45442;-72
2021/12/19 01:00:22;;;;;;;;;43.25;25.25;;;;;7.75;79.93;103557.16;5073794;28;46030;-72
2021/12/19 01:02:51;;;;;;;;;33.00;24.50;;;;;7.67;78.96;103541.16;5075159;28;45455;-72
2021/12/19 01:05:17;;;;;;;;;31.75;24.75;;;;;7.85;79.17;103566.16;5072838;28;45584;-72
2021/12/19 01:07:42;;;;;;;;;32.25;27.00;;;;;7.63;78.60;103528.78;5073015;28;45367;-72
2021/12/19 01:10:09;;;;;;;;;28.00;23.25;;;;;7.69;78.90;103547.38;5073123;28;45566;-72
2021/12/19 01:12:38;;;;;;;;;29.75;23.75;;;;;7.81;79.89;103569.59;5073503;28;45501;-72
2021/12/19 01:15:05;;;;;;;;;34.00;28.50;;;;;7.79;79.80;103564.28;5054060;28;45502;-72
2021/12/19 01:17:30;;;;;;;;;33.50;28.25;;;;;7.79;78.98;103560.75;5074304;27;45281;-72
2021/12/19 01:19:56;;;;;;;;;41.75;27.75;;;;;7.68;78.90;103542.09;5061658;27;47357;-72
2021/12/19 01:22:21;;;;;;;;;31.50;24.00;;;;;7.68;79.67;103550.88;5072409;27;45504;-71
2021/12/19 01:24:46;;;;;;;;;40.50;28.00;;;;;7.69;80.04;103550.00;5068086;28;45531;-71
2021/12/19 01:27:12;;;;;;;;;34.50;28.00;;;;;7.68;79.30;103552.63;5073234;28;45361;-71
2021/12/19 01:29:37;;;;;;;;;38.75;30.75;;;;;7.62;79.77;103541.94;5074997;27;45872;-72
2021/12/19 01:32:03;;;;;;;;;41.75;27.00;;;;;7.72;79.92;103560.63;5072621;28;45372;-72
2021/12/19 01:34:28;;;;;;;;;38.25;28.75;;;;;7.62;80.15;103537.56;5055232;28;45455;-72
2021/12/19 01:36:53;;;;;;;;;42.25;30.25;;;;;7.69;80.22;103546.50;5072621;28;45273;-72
2021/12/19 01:39:19;;;;;;;;;41.75;30.75;;;;;7.65;80.35;103536.75;5073051;28;45552;-72
2021/12/19 01:41:50;;;;;;;;;50.50;32.00;;;;;7.68;80.36;103542.97;5075046;28;45480;-72
2021/12/19 01:44:16;;;;;;;;;47.75;34.00;;;;;7.65;80.27;103535.00;5074112;28;45382;-72
2021/12/19 01:46:44;;;;;;;;;42.25;24.00;;;;;7.69;79.92;103542.09;5072776;28;45348;-72
2021/12/19 01:49:10;;;;;;;;;40.50;32.50;;;;;7.77;80.00;103555.47;5072508;27;46201;-72
2021/12/19 01:51:36;;;;;;;;;38.00;31.25;;;;;7.40;78.93;103493.13;5072417;28;45521;-72
2021/12/19 01:54:02;;;;;;;;;32.50;23.00;;;;;7.68;79.69;103553.50;5053213;28;45460;-72
2021/12/19 01:56:28;;;;;;;;;31.75;22.75;;;;;7.74;79.44;103561.56;5074929;28;45430;-72
2021/12/19 01:58:53;;;;;;;;;22.50;16.00;;;;;7.72;79.77;103563.25;5072447;28;45334;-72
2021/12/19 02:01:18;;;;;;;;;31.00;20.25;;;;;7.70;79.55;103554.41;5072651;28;45526;-71
2021/12/19 02:03:44;;;;;;;;;19.75;15.75;;;;;7.56;78.41;103537.44;5072721;28;45830;-71
2021/12/19 02:06:09;;;;;;;;;23.75;15.00;;;;;7.59;78.76;103555.03;5072593;27;45523;-72
2021/12/19 02:08:35;;;;;;;;;24.25;17.00;;;;;7.61;78.77;103553.31;5074601;28;46247;-72
2021/12/19 02:11:00;;;;;;;;;26.25;15.25;;;;;7.37;79.05;103515.00;5072360;28;45450;-72
2021/12/19 02:13:25;;;;;;;;;26.50;15.00;;;;;7.61;78.98;103548.94;5072391;28;45886;-72
2021/12/19 02:15:51;;;;;;;;;24.75;15.00;;;;;7.45;78.44;103526.63;5071199;28;45542;-72
2021/12/19 02:18:19;;;;;;;;;26.00;14.50;;;;;7.22;78.13;103491.84;5072460;28;46133;-71
2021/12/19 02:20:53;;;;;;;;;21.75;15.50;;;;;7.55;79.88;103550.56;5074277;28;45409;-71
2021/12/19 02:23:21;;;;;;;;;22.25;14.75;;;;;7.56;78.90;103547.97;5072342;28;45423;-71
2021/12/19 02:25:46;;;;;;;;;25.00;16.25;;;;;7.45;78.99;103536.28;5072065;28;45320;-71
2021/12/19 02:28:12;;;;;;;;;26.25;21.25;;;;;7.50;77.53;103543.44;5073241;28;45963;-71
2021/12/19 02:30:38;;;;;;;;;23.00;15.50;;;;;7.30;78.09;103510.47;5075838;28;45561;-71
2021/12/19 02:33:12;;;;;;;;;28.50;19.50;;;;;7.45;78.45;103546.81;5076044;28;45406;-71
2021/12/19 02:35:38;;;;;;;;;17.75;16.75;;;;;7.37;77.83;103535.19;5076808;28;45390;-71
2021/12/19 02:48:42;;;;;;;;;37.25;25.00;;;;;7.03;78.56;103514.22;5075216;28;45351;-71
2021/12/19 02:51:07;;;;;;;;;30.75;22.50;;;;;7.08;79.56;103523.97;5056808;28;45264;-71
2021/12/19 02:53:35;;;;;;;;;31.50;20.50;;;;;7.15;79.27;103524.16;5077536;28;45497;-71
2021/12/19 02:56:03;;;;;;;;;31.75;22.75;;;;;7.08;79.56;103511.69;5075323;28;45639;-71
2021/12/19 02:58:29;;;;;;;;;25.75;21.50;;;;;7.11;79.58;103510.88;5075117;28;45435;-71
2021/12/19 03:00:56;;;;;;;;;30.00;23.75;;;;;7.07;79.34;103501.13;5075571;28;45424;-71
2021/12/19 03:03:21;;;;;;;;;38.50;26.75;;;;;7.10;79.75;103507.34;5075076;28;45470;-71
2021/12/19 03:05:46;;;;;;;;;41.25;25.75;;;;;7.15;79.83;103520.66;5077602;28;45459;-71
2021/12/19 03:08:12;;;;;;;;;31.50;26.00;;;;;7.16;79.66;103517.16;5075032;28;45557;-71
2021/12/19 03:18:39;;;;;;;;;34.25;25.25;;;;;7.16;79.46;103488.16;5074788;28;45972;-71
2021/12/19 03:21:05;;;;;;;;;36.00;26.75;;;;;7.16;79.02;103489.06;5075415;28;45974;-71
2021/12/19 03:23:31;;;;;;;;;38.00;21.25;;;;;7.17;79.34;103490.81;5076117;27;45392;-71
2021/12/19 03:25:56;;;;;;;;;14.25;14.25;;;;;6.82;79.67;103429.41;5075039;28;45317;-71
2021/12/19 03:28:22;;;;;;;;;26.50;23.75;;;;;7.12;79.16;103484.59;5074736;28;45285;-71
2021/12/19 03:30:48;;;;;;;;;34.00;26.75;;;;;6.82;78.77;103430.34;5074757;28;45349;-71
2021/12/19 03:33:14;;;;;;;;;30.75;24.00;;;;;7.07;79.60;103480.06;5074647;28;45393;-71
2021/12/19 03:35:41;;;;;;;;;32.00;25.25;;;;;7.17;79.33;103496.09;5077078;28;45392;-71
2021/12/19 03:38:08;;;;;;;;;32.00;22.50;;;;;7.15;79.31;103489.91;5074351;28;46136;-71
2021/12/19 03:40:40;;;;;;;;;35.50;22.25;;;;;7.08;79.62;103469.53;5073907;28;45419;-71
2021/12/19 03:43:14;;;;;;;;;35.25;21.00;;;;;7.19;80.05;103483.88;5073734;28;47662;-71
2021/12/19 03:45:40;;;;;;;;;27.00;21.00;;;;;7.21;79.56;103478.66;5074436;28;45439;-71
2021/12/19 03:48:10;;;;;;;;;26.50;17.00;;;;;7.21;80.29;103481.28;5074792;28;45789;-71
2021/12/19 03:50:36;;;;;;;;;25.75;15.75;;;;;7.19;80.38;103475.06;5077126;28;46178;-71
2021/12/19 03:53:02;;;;;;;;;33.75;21.50;;;;;7.08;80.11;103443.22;5072989;28;45542;-71
2021/12/19 03:55:28;;;;;;;;;27.25;20.25;;;;;7.26;80.20;103472.63;5074126;28;45387;-71
2021/12/19 03:57:55;;;;;;;;;28.75;25.75;;;;;7.10;79.81;103441.50;5074856;28;47248;-71
2021/12/19 04:00:24;;;;;;;;;34.25;24.75;;;;;6.95;79.14;103425.34;5073589;28;45424;-71
2021/12/19 04:02:53;;;;;;;;;29.50;23.00;;;;;7.23;80.17;103461.09;5076205;28;45363;-71
2021/12/19 04:05:18;;;;;;;;;23.75;21.25;;;;;7.07;80.46;103427.38;5076262;28;45262;-71
2021/12/19 04:07:44;;;;;;;;;33.75;26.75;;;;;7.14;80.02;103431.94;5074339;28;46676;-71
2021/12/19 04:10:09;;;;;;;;;33.50;21.75;;;;;7.12;80.24;103423.09;5074104;28;45351;-71
2021/12/19 04:12:34;;;;;;;;;35.50;24.75;;;;;7.24;78.96;103441.84;5074291;27;45479;-71
2021/12/19 04:15:00;;;;;;;;;33.50;22.00;;;;;7.19;80.04;103436.44;5074621;27;45399;-71
2021/12/19 04:17:25;;;;;;;;;25.75;20.00;;;;;7.17;80.07;103426.72;5075870;27;45385;-71
2021/12/19 04:19:50;;;;;;;;;29.75;21.25;;;;;7.19;79.80;103431.19;5073906;27;45300;-71
2021/12/19 04:22:16;;;;;;;;;42.25;25.00;;;;;7.30;79.24;103439.34;5073613;27;45373;-71
2021/12/19 04:24:41;;;;;;;;;33.75;22.75;;;;;7.09;79.20;103400.25;5074421;28;45274;-71
2021/12/19 04:27:07;;;;;;;;;38.00;21.00;;;;;7.24;79.38;103433.94;5073720;28;46003;-71
2021/12/19 04:29:32;;;;;;;;;27.00;20.00;;;;;6.86;78.95;103368.13;5075490;28;45416;-71
2021/12/19 04:31:57;;;;;;;;;42.50;25.25;;;;;7.20;79.60;103421.53;5072348;27;45357;-71
2021/12/19 04:34:24;;;;;;;;;32.50;22.75;;;;;7.21;79.19;103429.47;5074188;28;47062;-71
2021/12/19 04:36:56;;;;;;;;;25.75;20.75;;;;;7.07;80.00;103404.56;5073576;28;46888;-71
2021/12/19 04:39:31;;;;;;;;;33.00;21.75;;;;;7.15;80.10;103412.66;5058617;28;45373;-71
2021/12/19 04:42:57;;;;;;;;;27.50;20.50;;;;;7.10;80.04;103395.84;5074986;28;45306;-71
2021/12/19 04:53:13;;;;;;;;;25.00;16.50;;;;;7.05;79.75;103394.00;5072367;28;45474;-71
2021/12/19 05:01:12;;;;;;;;;34.50;19.00;;;;;7.23;79.86;103409.31;5073284;28;45625;-71
2021/12/19 05:06:19;;;;;;;;;27.00;20.75;;;;;7.22;79.56;103410.19;5073357;28;45452;-71
2021/12/19 05:14:20;;;;;;;;;31.75;17.50;;;;;7.10;80.73;103385.31;5072921;28;45353;-71
2021/12/19 05:16:47;;;;;;;;;21.00;16.00;;;;;7.23;79.85;103401.41;5073384;28;45408;-71
2021/12/19 05:19:41;;;;;;;;;22.75;15.25;;;;;7.20;80.43;103396.06;5073399;28;46236;-71
2021/12/19 05:22:06;;;;;;;;;24.00;17.00;;;;;7.25;80.15;103404.97;5073498;28;45253;-71
2021/12/19 05:27:04;;;;;;;;;23.75;16.50;;;;;7.24;79.81;103399.69;5072978;28;45418;-71
2021/12/19 05:29:31;;;;;;;;;20.25;15.25;;;;;7.20;79.57;103396.06;5075123;28;46138;-71
2021/12/19 05:31:56;;;;;;;;;28.75;20.75;;;;;7.25;79.89;103401.47;5072849;28;45411;-71
2021/12/19 05:34:22;;;;;;;;;23.50;18.50;;;;;7.25;79.64;103393.56;5072853;28;45479;-71
2021/12/19 05:47:24;;;;;;;;;26.75;13.75;;;;;7.12;79.85;103367.78;5074459;28;45371;-71
2021/12/19 05:49:50;;;;;;;;;24.50;13.00;;;;;7.20;80.26;103380.28;5071135;28;46110;-71
2021/12/19 05:52:16;;;;;;;;;22.25;13.25;;;;;7.16;80.45;103375.81;5072513;28;45425;-71
2021/12/19 05:54:42;;;;;;;;;21.25;15.25;;;;;7.27;80.17;103389.22;5073400;27;45375;-71
2021/12/19 05:57:09;;;;;;;;;24.00;18.50;;;;;7.07;79.93;103351.91;5072491;27;45421;-71
2021/12/19 05:59:35;;;;;;;;;21.75;15.75;;;;;7.17;80.23;103372.31;5074622;28;46183;-71
2021/12/19 06:02:00;;;;;;;;;25.50;18.75;;;;;7.08;80.20;103356.31;5072621;28;45391;-71
2021/12/19 06:04:25;;;;;;;;;28.75;18.00;;;;;7.25;80.49;103383.91;5075549;28;45609;-72
2021/12/19 06:06:51;;;;;;;;;24.00;16.00;;;;;7.23;79.40;103379.47;5076187;28;45466;-71
2021/12/19 06:09:16;;;;;;;;;26.00;14.75;;;;;7.19;80.63;103367.97;5058702;28;45363;-71
2021/12/19 06:11:42;;;;;;;;;26.00;18.75;;;;;7.10;79.48;103359.88;5077116;27;45415;-71
2021/12/19 06:14:07;;;;;;;;;23.00;19.00;;;;;7.24;79.38;103386.53;5075614;28;45301;-71
2021/12/19 06:16:33;;;;;;;;;26.00;16.25;;;;;6.83;78.54;103320.66;5075576;27;45597;-71
2021/12/19 06:18:58;;;;;;;;;25.50;14.50;;;;;7.16;79.67;103390.72;5075212;27;45228;-71
2021/12/19 06:21:23;;;;;;;;;18.50;18.25;;;;;7.16;79.01;103391.59;5075358;28;45339;-71
2021/12/19 06:23:49;;;;;;;;;22.00;16.00;;;;;7.10;79.24;103378.31;5077058;28;45513;-71
2021/12/19 06:26:14;;;;;;;;;27.00;14.50;;;;;7.01;78.91;103368.47;5075013;27;45428;-71
2021/12/19 06:28:40;;;;;;;;;25.25;15.25;;;;;6.85;78.91;103334.72;5074224;28;45472;-71
2021/12/19 06:31:06;;;;;;;;;23.50;16.00;;;;;7.11;79.53;103369.53;5075661;27;45542;-71
2021/12/19 06:33:32;;;;;;;;;22.75;18.00;;;;;6.97;80.09;103344.66;5075740;28;45497;-71
2021/12/19 06:35:57;;;;;;;;;21.75;18.25;;;;;7.07;79.24;103362.44;5077284;28;45347;-71
2021/12/19 06:38:23;;;;;;;;;23.75;17.25;;;;;7.10;79.67;103373.03;5057942;28;47019;-71
2021/12/19 06:40:48;;;;;;;;;24.50;15.50;;;;;7.04;79.52;103354.47;5064733;28;45360;-71
2021/12/19 06:43:13;;;;;;;;;26.75;16.25;;;;;6.69;78.76;103295.78;5074314;27;45503;-71
2021/12/19 06:45:39;;;;;;;;;25.50;21.00;;;;;7.10;79.77;103361.63;5076037;27;45431;-72
2021/12/19 06:48:04;;;;;;;;;27.50;16.75;;;;;7.09;79.49;103355.47;5075470;28;46279;-72
2021/12/19 06:50:30;;;;;;;;;21.00;14.50;;;;;7.11;79.98;103359.00;5077592;28;45356;-72
2021/12/19 06:52:55;;;;;;;;;19.00;14.50;;;;;6.96;79.08;103327.06;5075857;28;45410;-72
2021/12/19 06:55:21;;;;;;;;;25.00;16.50;;;;;7.13;79.94;103354.69;5068359;28;45922;-72
2021/12/19 06:57:47;;;;;;;;;26.00;19.00;;;;;7.13;79.96;103357.31;5075982;28;46139;-72
2021/12/19 07:00:22;;;;;;;;;27.50;18.50;;;;;7.02;80.04;103325.47;5075398;28;45261;-72
2021/12/19 07:02:47;;;;;;;;;30.50;18.25;;;;;7.14;80.11;103352.91;5073349;27;45302;-72
2021/12/19 07:05:12;;;;;;;;;28.00;18.75;;;;;7.14;80.98;103343.28;5075539;27;45303;-72
2021/12/19 07:07:38;;;;;;;;;28.75;18.75;;;;;7.14;80.04;103342.38;5073989;27;45564;-72
2021/12/19 07:10:05;;;;;;;;;29.25;14.00;;;;;7.14;80.36;103339.75;5074852;28;45491;-72
2021/12/19 07:12:31;;;;;;;;;30.50;18.25;;;;;7.07;79.81;103329.97;5075188;27;45344;-72
2021/12/19 07:14:58;;;;;;;;;24.50;21.00;;;;;7.14;80.66;103345.91;5075263;28;45400;-72
2021/12/19 07:17:23;;;;;;;;;22.50;16.00;;;;;7.07;80.34;103327.31;5076237;27;46350;-72
2021/12/19 07:19:49;;;;;;;;;22.00;16.00;;;;;7.05;80.34;103315.00;5074821;28;45523;-72
2021/12/19 07:22:14;;;;;;;;;33.25;23.75;;;;;7.13;81.03;103330.09;5075010;28;45473;-72
2021/12/19 07:24:40;;;;;;;;;32.25;17.75;;;;;7.19;80.46;103335.47;5075023;27;45487;-72
2021/12/19 07:27:05;;;;;;;;;32.00;20.00;;;;;7.20;80.12;103342.50;5074939;28;45727;-72
2021/12/19 07:29:31;;;;;;;;;33.25;25.25;;;;;7.19;80.37;103335.47;5075584;27;45757;-72
2021/12/19 07:31:57;;;;;;;;;32.25;20.00;;;;;7.04;79.96;103309.72;5075153;28;45285;-72
2021/12/19 07:34:30;;;;;;;;;45.25;25.50;;;;;7.21;80.89;103345.19;5068586;27;45319;-72
2021/12/19 07:36:55;;;;;;;;;24.00;19.25;;;;;7.22;80.90;103336.44;5074715;27;46948;-72
2021/12/19 07:39:37;;;;;;;;;35.00;25.00;;;;;7.04;80.86;103309.72;5074661;27;45388;-72
2021/12/19 07:42:06;;;;;;;;;36.75;23.50;;;;;7.19;80.47;103341.63;5075102;28;45456;-72
2021/12/19 07:44:32;;;;;;;;;40.25;19.50;;;;;7.25;81.16;103349.66;5075028;27;45507;-72
2021/12/19 07:46:57;;;;;;;;;37.50;24.50;;;;;7.26;80.66;103338.28;5073009;28;46388;-72
2021/12/19 07:49:23;;;;;;;;;34.50;21.50;;;;;7.29;81.32;103337.44;5074534;27;45265;-72
2021/12/19 07:51:48;;;;;;;;;29.50;19.75;;;;;7.18;80.33;103324.06;5074706;27;45463;-72
2021/12/19 07:54:14;;;;;;;;;31.25;20.25;;;;;7.15;80.51;103318.72;5074665;28;45479;-72
2021/12/19 07:56:39;;;;;;;;;24.75;17.75;;;;;7.27;81.02;103340.06;5076563;28;45526;-72
2021/12/19 07:59:06;;;;;;;;;26.50;21.00;;;;;7.27;80.02;103339.19;5073650;27;45451;-71
2021/12/19 08:01:32;;;;;;;;;33.00;21.75;;;;;7.20;80.63;103332.88;5066640;28;45494;-70
2021/12/19 08:03:57;;;;;;;;;34.25;21.50;;;;;7.08;80.95;103306.28;5074685;28;45494;-70
2021/12/19 08:06:22;;;;;;;;;26.75;20.25;;;;;7.21;79.99;103334.66;5074488;28;45384;-72
2021/12/19 08:08:52;;;;;;;;;37.75;21.50;;;;;7.23;81.04;103335.56;5076258;28;45285;-72
2021/12/19 08:14:03;;;;;;;;;32.50;22.25;;;;;7.30;80.80;103335.72;5074168;28;45507;-72
2021/12/19 08:16:29;;;;;;;;;26.75;21.75;;;;;7.04;80.61;103289.53;5073975;27;46173;-72
2021/12/19 08:18:54;;;;;;;;;31.50;16.00;;;;;7.33;80.14;103339.31;5074034;28;45502;-72
2021/12/19 08:21:20;;;;;;;;;29.50;19.00;;;;;7.24;80.99;103307.50;5073832;28;45437;-72
2021/12/19 08:23:46;;;;;;;;;31.25;20.25;;;;;7.30;80.99;103306.75;5076653;28;46249;-72
2021/12/19 08:26:11;;;;;;;;;37.00;22.00;;;;;7.37;81.53;103321.81;5072274;27;45804;-72
2021/12/19 08:28:39;;;;;;;;;33.50;20.50;;;;;7.40;80.99;103325.38;5073744;27;45427;-72
2021/12/19 08:31:04;;;;;;;;;32.50;26.00;;;;;7.40;80.45;103321.88;5073984;28;45337;-72
2021/12/19 08:33:30;;;;;;;;;38.50;21.25;;;;;7.34;81.37;103324.38;5073881;27;45579;-72
2021/12/19 08:35:55;;;;;;;;;34.75;18.25;;;;;7.39;80.72;103320.97;5056079;28;47719;-72
2021/12/19 08:38:21;;;;;;;;;25.25;15.25;;;;;7.15;80.74;103275.72;5059466;28;45408;-72
2021/12/19 08:40:48;;;;;;;;;35.50;27.25;;;;;7.46;80.82;103330.78;5073865;27;45493;-72
2021/12/19 08:43:14;;;;;;;;;32.75;25.00;;;;;7.45;80.72;103326.38;5068351;28;45543;-72
2021/12/19 08:45:40;;;;;;;;;26.50;19.50;;;;;7.47;80.69;103331.66;5055072;28;47044;-72
2021/12/19 08:48:05;;;;;;;;;28.50;18.75;;;;;7.49;79.99;103329.94;5073762;28;45845;-72
2021/12/19 08:50:32;;;;;;;;;20.75;16.25;;;;;7.48;80.67;103322.91;5057354;28;45497;-72
2021/12/19 08:52:57;;;;;;;;;24.75;17.50;;;;;7.47;80.38;103321.13;5073449;28;45448;-72
2021/12/19 08:55:23;;;;;;;;;31.25;22.25;;;;;7.08;79.63;103247.47;5073733;28;46155;-72
2021/12/19 08:57:48;;;;;;;;;38.00;20.00;;;;;7.36;81.47;103302.47;5073479;28;45463;-72
2021/12/19 09:00:14;;;;;;;;;22.75;19.25;;;;;7.32;80.57;103290.09;5073563;28;45447;-72
2021/12/19 09:02:45;;;;;;;;;27.00;19.75;;;;;7.50;80.46;103321.22;5075394;28;47211;-72
2021/12/19 09:05:11;;;;;;;;;32.25;20.25;;;;;7.36;80.94;103293.69;5071371;28;45479;-72
2021/12/19 09:07:36;;;;;;;;;34.25;22.75;;;;;7.51;80.28;103328.25;5073068;28;45521;-72
2021/12/19 09:10:04;;;;;;;;;35.25;26.50;;;;;7.40;80.65;103303.41;5073361;28;45437;-72
2021/12/19 09:12:29;;;;;;;;;39.50;23.00;;;;;7.51;80.03;103317.69;5073030;28;45830;-72
2021/12/19 09:14:55;;;;;;;;;30.75;24.00;;;;;7.46;81.24;103314.06;5074963;28;46149;-72
2021/12/19 09:17:20;;;;;;;;;38.00;26.75;;;;;7.51;80.05;103317.69;5073847;28;45380;-72
2021/12/19 09:19:46;;;;;;;;;32.25;22.25;;;;;7.41;80.71;103299.91;5072796;28;45360;-72
2021/12/19 09:22:11;;;;;;;;;24.25;19.75;;;;;7.45;80.96;103309.69;5067534;28;45399;-72
2021/12/19 09:24:37;;;;;;;;;33.00;24.75;;;;;7.44;80.51;103308.78;5073118;28;45343;-72
2021/12/19 09:27:03;;;;;;;;;26.50;18.00;;;;;7.50;81.14;103321.22;5073221;28;45462;-72
2021/12/19 09:29:29;;;;;;;;;20.25;14.75;;;;;7.45;81.02;103314.94;5073764;28;45504;-72
2021/12/19 09:31:55;;;;;;;;;25.75;15.00;;;;;7.55;81.07;103321.28;5073396;27;45402;-72
2021/12/19 09:34:22;;;;;;;;;14.50;10.00;;;;;7.42;80.51;103299.97;5072424;27;45335;-72
2021/12/19 09:36:47;;;;;;;;;13.00;11.50;;;;;7.46;80.97;103300.91;5072955;28;45428;-72
2021/12/19 09:39:12;;;;;;;;;15.75;10.75;;;;;7.47;81.03;103300.94;5072367;27;45475;-72
2021/12/19 09:41:43;;;;;;;;;15.25;12.00;;;;;7.51;80.56;103307.16;5074996;28;45402;-72
2021/12/19 09:44:11;;;;;;;;;15.75;11.50;;;;;7.60;80.32;103324.91;5071057;28;46006;-72
2021/12/19 09:46:39;;;;;;;;;8.00;7.75;;;;;7.47;79.70;103305.31;5072878;28;45482;-71
2021/12/19 09:49:07;;;;;;;;;18.75;8.00;;;;;7.46;80.87;103300.91;5072513;28;45527;-72
2021/12/19 09:51:34;;;;;;;;;13.50;8.00;;;;;7.55;80.30;103324.78;5072813;28;45552;-72
2021/12/19 09:53:59;;;;;;;;;9.25;6.75;;;;;7.57;80.86;103322.22;5071829;28;47181;-72
2021/12/19 09:56:24;;;;;;;;;12.50;9.25;;;;;7.20;80.73;103245.94;5074238;28;45548;-72
2021/12/19 09:58:50;;;;;;;;;11.50;9.00;;;;;7.58;80.58;103309.03;5072746;28;45478;-72
2021/12/19 10:01:16;;;;;;;;;10.00;9.00;;;;;7.53;80.53;103294.91;5072629;28;45579;-72
2021/12/19 10:03:42;;;;;;;;;12.00;9.25;;;;;7.67;80.85;103309.22;5072588;27;45537;-72
2021/12/19 10:06:19;;;;;;;;;17.50;10.50;;;;;7.70;80.71;103317.19;5054271;28;45948;-72
2021/12/19 10:08:48;;;;;;;;;8.50;7.75;;;;;7.61;80.69;103287.13;5074820;28;45436;-72
2021/12/19 10:11:47;;;;;;;;;16.00;14.00;;;;;7.70;79.44;103309.28;5072888;28;45544;-72
2021/12/19 10:14:28;;;;;;;;;14.50;10.50;;;;;7.67;79.89;103314.47;5072262;28;45827;-72
2021/12/19 10:16:58;;;;;;;;;18.75;9.75;;;;;7.62;80.93;103310.00;5072029;27;45546;-72
2021/12/19 10:19:53;;;;;;;;;17.00;13.25;;;;;7.66;80.50;103312.72;5065739;28;45387;-72
2021/12/19 10:22:40;;;;;;;;;16.50;13.25;;;;;7.58;80.60;103298.50;5052338;28;45640;-72
2021/12/19 10:25:30;;;;;;;;;21.75;9.75;;;;;7.61;79.87;103303.81;5051866;28;45537;-71
2021/12/19 10:28:05;;;;;;;;;13.50;10.50;;;;;7.32;80.50;103254.97;5050197;28;45776;-71
2021/12/19 10:30:35;;;;;;;;;12.75;9.75;;;;;7.49;80.41;103285.16;5032419;28;45413;-71
2021/12/19 10:33:02;;;;;;;;;21.75;13.75;;;;;7.63;80.73;103306.50;5052165;28;45305;-71
2021/12/19 10:35:35;;;;;;;;;14.00;12.75;;;;;7.47;79.65;103268.41;5032231;28;47728;-71
2021/12/19 10:38:04;;;;;;;;;18.00;12.50;;;;;7.62;80.15;103295.09;5031872;28;45374;-71
2021/12/19 10:40:30;;;;;;;;;15.00;11.25;;;;;7.52;79.74;103282.56;5052359;28;45496;-71
2021/12/19 10:43:00;;;;;;;;;13.00;12.25;;;;;7.62;80.29;103292.44;5051750;28;45455;-72
2021/12/19 10:45:34;;;;;;;;;12.75;9.00;;;;;7.64;79.77;103290.72;5051587;28;45492;-72
2021/12/19 10:48:15;;;;;;;;;12.25;10.00;;;;;7.66;80.60;103286.38;5052154;28;45627;-72
2021/12/19 10:50:48;;;;;;;;;9.75;8.50;;;;;7.67;80.33;103285.50;5056484;28;45475;-72
2021/12/19 10:53:15;;;;;;;;;15.00;11.75;;;;;7.67;79.26;103282.84;5054782;28;45527;-72
2021/12/19 10:55:47;;;;;;;;;12.75;11.25;;;;;7.31;80.42;103219.84;5054655;28;47019;-72
2021/12/19 10:58:31;;;;;;;;;10.50;8.25;;;;;7.69;80.29;103272.34;5055236;28;45360;-72
2021/12/19 11:01:08;;;;;;;;;9.00;9.00;;;;;7.59;80.00;103241.41;5052733;28;45447;-72
2021/12/19 11:03:38;;;;;;;;;9.00;7.25;;;;;7.73;79.55;103258.34;5055056;28;45374;-72
2021/12/19 11:06:20;;;;;;;;;8.00;7.75;;;;;7.67;80.37;103256.50;5055275;28;45509;-72
2021/12/19 11:08:45;;;;;;;;;10.25;6.50;;;;;7.78;79.73;103254.06;5056840;28;45515;-72
2021/12/19 11:11:13;;;;;;;;;7.00;7.00;;;;;7.76;80.14;103250.50;5037010;28;45389;-72
2021/12/19 11:13:38;;;;;;;;;7.25;4.25;;;;;7.81;80.27;103253.22;5054847;28;45447;-72
2021/12/19 11:16:04;;;;;;;;;4.25;4.25;;;;;7.72;79.83;103235.50;5054424;28;46776;-72
2021/12/19 11:18:30;;;;;;;;;8.00;8.00;;;;;7.85;80.48;103241.88;5054966;28;45352;-72
2021/12/19 11:20:56;;;;;;;;;8.50;7.25;;;;;7.68;79.83;103213.47;5056149;28;45348;-72
2021/12/19 11:23:21;;;;;;;;;10.50;8.50;;;;;7.87;80.09;103224.34;5063080;28;45424;-72
2021/12/19 11:25:47;;;;;;;;;11.75;9.25;;;;;7.82;79.88;103208.41;5056869;28;48436;-72
2021/12/19 11:28:13;;;;;;;;;10.25;9.00;;;;;7.85;80.23;103211.16;5074789;27;45385;-72
2021/12/19 11:30:39;;;;;;;;;12.25;12.25;;;;;7.85;79.11;103203.22;5074807;27;45505;-72
2021/12/19 11:33:41;;;;;;;;;16.75;13.00;;;;;7.92;79.31;103209.47;5074642;28;45435;-72
2021/12/19 11:36:08;;;;;;;;;17.25;12.00;;;;;7.78;80.36;103184.63;5073418;28;45488;-72
2021/12/19 11:38:37;;;;;;;;;18.25;13.00;;;;;7.91;80.10;103195.41;5076767;28;45397;-72
2021/12/19 11:41:09;;;;;;;;;17.75;14.00;;;;;7.91;78.96;103200.69;5071990;27;45387;-72
2021/12/19 11:43:39;;;;;;;;;20.50;16.75;;;;;7.97;80.34;103210.41;5074396;28;45434;-72
2021/12/19 11:46:14;;;;;;;;;20.25;17.75;;;;;7.89;79.09;103185.72;5074338;28;45371;-72
2021/12/19 11:48:40;;;;;;;;;20.75;19.50;;;;;7.86;79.16;103183.03;5074742;28;45566;-72
2021/12/19 11:51:08;;;;;;;;;27.25;23.50;;;;;7.87;79.52;103183.03;5074566;27;45643;-72
2021/12/19 11:53:43;;;;;;;;;21.75;19.75;;;;;7.88;79.95;103163.72;5076661;28;45672;-72
2021/12/19 11:56:17;;;;;;;;;20.75;18.25;;;;;7.99;79.66;103179.69;5074547;28;46111;-72
2021/12/19 11:58:55;;;;;;;;;17.25;16.50;;;;;7.92;79.65;103168.19;5073888;28;45582;-72
2021/12/19 12:01:29;;;;;;;;;21.25;15.50;;;;;7.99;79.11;103179.69;5067556;27;45539;-72
2021/12/19 12:03:59;;;;;;;;;17.50;13.50;;;;;7.97;79.82;103168.22;5073103;27;45634;-72
2021/12/19 12:06:34;;;;;;;;;14.25;9.25;;;;;7.99;79.48;103170.91;5071326;28;46181;-72
2021/12/19 12:09:02;;;;;;;;;9.50;8.75;;;;;7.96;79.48;103166.47;5074878;28;45556;-72
2021/12/19 12:12:15;;;;;;;;;12.75;9.50;;;;;7.74;79.76;103129.22;5077055;28;45444;-72
2021/12/19 12:14:50;;;;;;;;;15.75;11.00;;;;;7.98;79.14;103164.75;5055024;28;45743;-72
2021/12/19 12:17:22;;;;;;;;;10.75;9.25;;;;;7.83;78.81;103130.25;5073607;28;46301;-72
2021/12/19 12:19:50;;;;;;;;;10.50;7.25;;;;;8.02;79.72;103156.00;5072419;28;45430;-72
2021/12/19 12:25:02;;;;;;;;;10.75;10.00;;;;;8.03;80.18;103141.97;5074150;28;46412;-72
2021/12/19 12:27:37;;;;;;;;;11.75;9.75;;;;;7.95;79.64;103119.88;5059422;28;45518;-72
2021/12/19 12:30:09;;;;;;;;;16.75;12.25;;;;;7.88;79.94;103102.19;5074055;28;45620;-72